Time;durP1;ratioP1;P1;durP2;ratioP2;P2;SDS_P1;SDS_P2;PMS_P1;PMS_P2;Temp;Humidity;BMP_temperature;BMP_pressure;BME280_temperature;BME280_humidity;BME280_pressure;Samples;Min_cycle;Max_cycle;Signal;HPM_P1;HPM_P2
2023/10/06 00:00:42;;;;;;;;;;;;;;;;;;5073074;28;20441;-73
2023/10/06 00:03:11;;;;;;;;;;;;;;;;;;5073154;28;19954;-73
2023/10/06 00:05:38;;;;;;;;;;;;;;;;;;5072552;28;19931;-74
2023/10/06 00:08:07;;;;;;;;;;;;;;;;;;5072577;28;20356;-74
2023/10/06 00:10:36;;;;;;;;;;;;;;;;;;5073421;28;20445;-73
2023/10/06 00:13:05;;;;;;;;;;;;;;;;;;5072736;28;19924;-73
2023/10/06 00:15:38;;;;;;;;;;;;;;;;;;5072873;28;20020;-73
2023/10/06 00:18:07;;;;;;;;;;;;;;;;;;5059555;28;19928;-73
2023/10/06 00:20:39;;;;;;;;;;;;;;;;;;5072837;28;19925;-73
2023/10/06 00:23:06;;;;;;;;;;;;;;;;;;5072048;28;19935;-73
2023/10/06 00:25:35;;;;;;;;;;;;;;;;;;5073207;28;19974;-73
2023/10/06 00:28:08;;;;;;;;;;;;;;;;;;5073398;28;20346;-74
2023/10/06 00:30:35;;;;;;;;;;;;;;;;;;5072275;28;20012;-75
2023/10/06 00:33:05;;;;;;;;;;;;;;;;;;5069752;28;19970;-75
2023/10/06 00:35:32;;;;;;;;;;;;;;;;;;5072698;28;20390;-75
2023/10/06 00:38:12;;;;;;;;;;;;;;;;;;5072470;28;19924;-75
2023/10/06 00:40:40;;;;;;;;;;;;;;;;;;5072503;28;19924;-75
2023/10/06 00:43:08;;;;;;;;;;;;;;;;;;5072452;28;19930;-74
2023/10/06 00:45:39;;;;;;;;;;;;;;;;;;5072112;28;20438;-74
2023/10/06 00:48:10;;;;;;;;;;;;;;;;;;5072090;28;20434;-75
2023/10/06 00:50:39;;;;;;;;;;;;;;;;;;5072641;28;19925;-75
2023/10/06 00:53:07;;;;;;;;;;;;;;;;;;5071757;28;20016;-75
2023/10/06 00:55:35;;;;;;;;;;;;;;;;;;5072430;28;19932;-73
2023/10/06 00:58:03;;;;;;;;;;;;;;;;;;5072421;28;19994;-74
2023/10/06 01:00:31;;;;;;;;;;;;;;;;;;5071502;28;19928;-74
2023/10/06 01:02:58;;;;;;;;;;;;;;;;;;5068866;28;20010;-73
2023/10/06 01:05:31;;;;;;;;;;;;;;;;;;5072333;28;20387;-74
2023/10/06 01:07:58;;;;;;;;;;;;;;;;;;5071255;28;19978;-73
2023/10/06 01:10:34;;;;;;;;;;;;;;;;;;5071351;28;19924;-74
2023/10/06 01:13:11;;;;;;;;;;;;;;;;;;5064799;28;19974;-73
2023/10/06 01:15:44;;;;;;;;;;;;;;;;;;5071407;28;20027;-74
2023/10/06 01:18:19;;;;;;;;;;;;;;;;;;5072009;28;19930;-74
2023/10/06 01:20:46;;;;;;;;;;;;;;;;;;5072179;28;19935;-74
2023/10/06 01:23:20;;;;;;;;;;;;;;;;;;5071512;28;19924;-74
2023/10/06 01:25:48;;;;;;;;;;;;;;;;;;5072193;28;20527;-74
2023/10/06 01:28:15;;;;;;;;;;;;;;;;;;5072611;28;19925;-73
2023/10/06 01:30:42;;;;;;;;;;;;;;;;;;5070846;28;19925;-73
2023/10/06 01:33:10;;;;;;;;;;;;;;;;;;5070393;28;19978;-74
2023/10/06 01:35:42;;;;;;;;;;;;;;;;;;5072090;28;19994;-74
2023/10/06 01:38:18;;;;;;;;;;;;;;;;;;5070649;28;19924;-74
2023/10/06 01:40:45;;;;;;;;;;;;;;;;;;5072159;28;19924;-74
2023/10/06 01:43:14;;;;;;;;;;;;;;;;;;5071450;28;19924;-73
2023/10/06 01:45:44;;;;;;;;;;;;;;;;;;5072044;28;19932;-74
2023/10/06 01:48:24;;;;;;;;;;;;;;;;;;5071411;28;20011;-76
2023/10/06 01:50:54;;;;;;;;;;;;;;;;;;5069922;28;19932;-74
2023/10/06 01:53:21;;;;;;;;;;;;;;;;;;5070869;28;19924;-73
2023/10/06 01:55:49;;;;;;;;;;;;;;;;;;5072123;28;19924;-73
2023/10/06 01:58:16;;;;;;;;;;;;;;;;;;5072431;28;19931;-74
2023/10/06 02:00:45;;;;;;;;;;;;;;;;;;5071243;28;19936;-74
2023/10/06 02:03:13;;;;;;;;;;;;;;;;;;5057815;28;20019;-74
2023/10/06 02:05:40;;;;;;;;;;;;;;;;;;5072243;28;20387;-73
2023/10/06 02:08:09;;;;;;;;;;;;;;;;;;5071268;28;19936;-73
2023/10/06 02:10:36;;;;;;;;;;;;;;;;;;5071988;28;19925;-73
2023/10/06 02:13:04;;;;;;;;;;;;;;;;;;5071157;28;19924;-75
2023/10/06 02:15:32;;;;;;;;;;;;;;;;;;5070911;28;19933;-74
2023/10/06 02:17:59;;;;;;;;;;;;;;;;;;5070763;28;19924;-74
2023/10/06 02:20:30;;;;;;;;;;;;;;;;;;5072250;28;19924;-74
2023/10/06 02:22:58;;;;;;;;;;;;;;;;;;5069552;28;20497;-74
2023/10/06 02:25:26;;;;;;;;;;;;;;;;;;5071247;28;19931;-74
2023/10/06 02:27:53;;;;;;;;;;;;;;;;;;5071926;28;19924;-74
2023/10/06 02:30:25;;;;;;;;;;;;;;;;;;5072786;28;19954;-74
2023/10/06 02:32:52;;;;;;;;;;;;;;;;;;5074567;28;19933;-74
2023/10/06 02:35:19;;;;;;;;;;;;;;;;;;5076118;28;19924;-74
2023/10/06 02:37:46;;;;;;;;;;;;;;;;;;5075041;28;20328;-74
2023/10/06 02:40:13;;;;;;;;;;;;;;;;;;5079669;28;19924;-74
2023/10/06 02:42:45;;;;;;;;;;;;;;;;;;5078134;28;19924;-74
2023/10/06 02:45:16;;;;;;;;;;;;;;;;;;5078546;28;19979;-74
2023/10/06 02:47:43;;;;;;;;;;;;;;;;;;5077664;28;19932;-74
2023/10/06 02:50:18;;;;;;;;;;;;;;;;;;5076801;28;19924;-73
2023/10/06 02:52:46;;;;;;;;;;;;;;;;;;5074316;28;19931;-73
2023/10/06 02:55:19;;;;;;;;;;;;;;;;;;5075725;28;19925;-73
2023/10/06 02:57:51;;;;;;;;;;;;;;;;;;5074547;28;20118;-73
2023/10/06 03:03:03;;;;;;;;;;;;;;;;;;5070224;28;19940;-73
2023/10/06 03:05:32;;;;;;;;;;;;;;;;;;5074818;28;20371;-73
2023/10/06 03:08:00;;;;;;;;;;;;;;;;;;5074034;28;19925;-72
2023/10/06 03:10:30;;;;;;;;;;;;;;;;;;5075148;28;20425;-72
2023/10/06 03:13:00;;;;;;;;;;;;;;;;;;5073936;28;19928;-72
2023/10/06 03:15:35;;;;;;;;;;;;;;;;;;5074578;28;19982;-72
2023/10/06 03:18:02;;;;;;;;;;;;;;;;;;5073833;28;19924;-73
2023/10/06 03:20:40;;;;;;;;;;;;;;;;;;5074801;28;19964;-72
2023/10/06 03:23:24;;;;;;;;;;;;;;;;;;5073087;28;19932;-72
2023/10/06 03:25:53;;;;;;;;;;;;;;;;;;5071026;28;19985;-72
2023/10/06 03:28:20;;;;;;;;;;;;;;;;;;5073511;28;19925;-72
2023/10/06 03:30:49;;;;;;;;;;;;;;;;;;5073298;28;19925;-72
2023/10/06 03:33:18;;;;;;;;;;;;;;;;;;5074233;28;20005;-72
2023/10/06 03:35:47;;;;;;;;;;;;;;;;;;5074422;28;19986;-73
2023/10/06 03:41:09;;;;;;;;;;;;;;;;;;5074222;28;20464;-72
2023/10/06 03:43:40;;;;;;;;;;;;;;;;;;5072849;28;20341;-72
2023/10/06 03:46:09;;;;;;;;;;;;;;;;;;5073095;28;20007;-72
2023/10/06 03:48:36;;;;;;;;;;;;;;;;;;5073130;28;19924;-73
2023/10/06 03:51:04;;;;;;;;;;;;;;;;;;5074241;28;19994;-73
2023/10/06 03:53:31;;;;;;;;;;;;;;;;;;5072011;28;19925;-73
2023/10/06 03:55:58;;;;;;;;;;;;;;;;;;5073750;28;19932;-73
2023/10/06 03:58:28;;;;;;;;;;;;;;;;;;5073945;28;19925;-73
2023/10/06 04:00:55;;;;;;;;;;;;;;;;;;5073085;28;20283;-74
2023/10/06 04:03:22;;;;;;;;;;;;;;;;;;5071885;28;20395;-73
2023/10/06 04:05:49;;;;;;;;;;;;;;;;;;5073311;28;19925;-73
2023/10/06 04:08:17;;;;;;;;;;;;;;;;;;5072817;28;19970;-73
2023/10/06 04:10:45;;;;;;;;;;;;;;;;;;5072655;28;20328;-73
2023/10/06 04:13:12;;;;;;;;;;;;;;;;;;5072789;28;19925;-73
2023/10/06 04:15:39;;;;;;;;;;;;;;;;;;5072559;28;19951;-73
2023/10/06 04:18:10;;;;;;;;;;;;;;;;;;5072921;28;19925;-73
2023/10/06 04:20:37;;;;;;;;;;;;;;;;;;5073166;28;19924;-73
2023/10/06 04:23:04;;;;;;;;;;;;;;;;;;5072325;28;19925;-73
2023/10/06 04:25:37;;;;;;;;;;;;;;;;;;5073207;28;19925;-73
2023/10/06 04:28:04;;;;;;;;;;;;;;;;;;5073229;28;19924;-73
2023/10/06 04:30:34;;;;;;;;;;;;;;;;;;5072492;28;19986;-73
2023/10/06 04:33:01;;;;;;;;;;;;;;;;;;5071534;28;19935;-73
2023/10/06 04:35:29;;;;;;;;;;;;;;;;;;5072461;28;19925;-73
2023/10/06 04:37:57;;;;;;;;;;;;;;;;;;5072338;28;19928;-73
2023/10/06 04:40:24;;;;;;;;;;;;;;;;;;5072729;28;19928;-73
2023/10/06 04:42:51;;;;;;;;;;;;;;;;;;5071617;28;19924;-73
2023/10/06 04:45:18;;;;;;;;;;;;;;;;;;5071592;28;19924;-73
2023/10/06 04:47:45;;;;;;;;;;;;;;;;;;5072100;28;19925;-73
2023/10/06 04:50:12;;;;;;;;;;;;;;;;;;5073013;28;19978;-73
2023/10/06 04:52:39;;;;;;;;;;;;;;;;;;5072271;28;19924;-73
2023/10/06 04:55:11;;;;;;;;;;;;;;;;;;5071194;28;19932;-73
2023/10/06 04:57:37;;;;;;;;;;;;;;;;;;5072774;28;19974;-73
2023/10/06 05:00:06;;;;;;;;;;;;;;;;;;5072020;28;19925;-73
2023/10/06 05:02:34;;;;;;;;;;;;;;;;;;5069620;28;20393;-74
2023/10/06 05:05:01;;;;;;;;;;;;;;;;;;5072712;28;20032;-73
2023/10/06 05:07:28;;;;;;;;;;;;;;;;;;5071701;28;19970;-75
2023/10/06 05:09:55;;;;;;;;;;;;;;;;;;5072032;28;19924;-76
2023/10/06 05:12:23;;;;;;;;;;;;;;;;;;5070570;28;20481;-76
2023/10/06 05:14:50;;;;;;;;;;;;;;;;;;5071998;28;19925;-78
2023/10/06 05:17:17;;;;;;;;;;;;;;;;;;5069747;28;19970;-77
2023/10/06 05:19:45;;;;;;;;;;;;;;;;;;5068539;28;19933;-77
2023/10/06 05:22:12;;;;;;;;;;;;;;;;;;5069094;28;19975;-78
2023/10/06 05:24:39;;;;;;;;;;;;;;;;;;5071481;28;19970;-78
2023/10/06 05:27:06;;;;;;;;;;;;;;;;;;5071689;28;19971;-78
2023/10/06 05:29:35;;;;;;;;;;;;;;;;;;5072681;28;19986;-78
2023/10/06 05:32:03;;;;;;;;;;;;;;;;;;5071268;28;19931;-77
2023/10/06 05:34:30;;;;;;;;;;;;;;;;;;5068981;28;19933;-78
2023/10/06 05:36:59;;;;;;;;;;;;;;;;;;5062061;28;19924;-77
2023/10/06 05:39:28;;;;;;;;;;;;;;;;;;5072389;28;19925;-77
2023/10/06 05:41:55;;;;;;;;;;;;;;;;;;5072724;28;19928;-78
2023/10/06 05:44:24;;;;;;;;;;;;;;;;;;5067919;28;19982;-78
2023/10/06 05:46:51;;;;;;;;;;;;;;;;;;5058903;28;21870;-78
2023/10/06 05:49:21;;;;;;;;;;;;;;;;;;5053163;28;20387;-78
2023/10/06 05:51:49;;;;;;;;;;;;;;;;;;5055140;28;20925;-78
2023/10/06 05:54:21;;;;;;;;;;;;;;;;;;5054094;28;19960;-77
2023/10/06 05:56:52;;;;;;;;;;;;;;;;;;5053733;28;19987;-78
2023/10/06 05:59:19;;;;;;;;;;;;;;;;;;5050678;28;19932;-78
2023/10/06 06:01:55;;;;;;;;;;;;;;;;;;5057282;28;19932;-77
2023/10/06 06:04:27;;;;;;;;;;;;;;;;;;5054762;28;19936;-76
2023/10/06 06:06:56;;;;;;;;;;;;;;;;;;5056496;28;19993;-75
2023/10/06 06:09:23;;;;;;;;;;;;;;;;;;5055708;28;20296;-77
2023/10/06 06:11:50;;;;;;;;;;;;;;;;;;5055411;28;19932;-78
2023/10/06 06:14:20;;;;;;;;;;;;;;;;;;5055803;28;19976;-76
2023/10/06 06:16:47;;;;;;;;;;;;;;;;;;5060534;28;19933;-78
2023/10/06 06:19:14;;;;;;;;;;;;;;;;;;5055135;28;19924;-78
2023/10/06 06:21:41;;;;;;;;;;;;;;;;;;5056405;28;19931;-78
2023/10/06 06:24:08;;;;;;;;;;;;;;;;;;5062213;28;20076;-74
2023/10/06 06:26:36;;;;;;;;;;;;;;;;;;5059652;28;20283;-74
2023/10/06 06:29:03;;;;;;;;;;;;;;;;;;5060245;28;19977;-74
2023/10/06 06:31:32;;;;;;;;;;;;;;;;;;5073972;28;20340;-74
2023/10/06 06:33:59;;;;;;;;;;;;;;;;;;5074355;28;19932;-74
2023/10/06 06:36:27;;;;;;;;;;;;;;;;;;5072859;28;19925;-73
2023/10/06 06:38:55;;;;;;;;;;;;;;;;;;5075621;28;20007;-73
2023/10/06 06:41:22;;;;;;;;;;;;;;;;;;5076651;28;20361;-73
2023/10/06 06:43:49;;;;;;;;;;;;;;;;;;5075186;28;19970;-74
2023/10/06 06:46:17;;;;;;;;;;;;;;;;;;5068771;28;19925;-73
2023/10/06 06:48:46;;;;;;;;;;;;;;;;;;5070720;28;19967;-74
2023/10/06 06:51:13;;;;;;;;;;;;;;;;;;5073119;28;20295;-73
2023/10/06 06:53:40;;;;;;;;;;;;;;;;;;5073930;28;19924;-74
2023/10/06 06:56:10;;;;;;;;;;;;;;;;;;5073787;28;20006;-74
2023/10/06 06:58:37;;;;;;;;;;;;;;;;;;5072952;28;20011;-74
2023/10/06 07:01:05;;;;;;;;;;;;;;;;;;5070697;28;20032;-73
2023/10/06 07:03:33;;;;;;;;;;;;;;;;;;5072583;28;20378;-73
2023/10/06 07:06:00;;;;;;;;;;;;;;;;;;5072411;28;20299;-74
2023/10/06 07:08:28;;;;;;;;;;;;;;;;;;5067776;28;20008;-75
2023/10/06 07:10:56;;;;;;;;;;;;;;;;;;5074274;28;19939;-73
2023/10/06 07:13:23;;;;;;;;;;;;;;;;;;5073923;28;19972;-73
2023/10/06 07:15:50;;;;;;;;;;;;;;;;;;5073287;28;19925;-74
2023/10/06 07:18:19;;;;;;;;;;;;;;;;;;5071949;28;19928;-74
2023/10/06 07:20:47;;;;;;;;;;;;;;;;;;5073396;28;20290;-74
2023/10/06 07:23:15;;;;;;;;;;;;;;;;;;5074398;28;19939;-73
2023/10/06 07:25:42;;;;;;;;;;;;;;;;;;5074098;28;19978;-74
2023/10/06 07:28:12;;;;;;;;;;;;;;;;;;5073654;28;19924;-74
2023/10/06 07:30:39;;;;;;;;;;;;;;;;;;5072844;28;20305;-74
2023/10/06 07:33:06;;;;;;;;;;;;;;;;;;5072500;28;19928;-73
2023/10/06 07:35:40;;;;;;;;;;;;;;;;;;5073493;28;19931;-74
2023/10/06 07:38:08;;;;;;;;;;;;;;;;;;5072489;28;19925;-74
2023/10/06 07:40:35;;;;;;;;;;;;;;;;;;5073169;28;19925;-73
2023/10/06 07:43:05;;;;;;;;;;;;;;;;;;5072113;28;19925;-73
2023/10/06 07:45:32;;;;;;;;;;;;;;;;;;5072741;28;19924;-74
2023/10/06 07:47:59;;;;;;;;;;;;;;;;;;5070169;28;20280;-72
2023/10/06 07:50:28;;;;;;;;;;;;;;;;;;5069948;28;19970;-73
2023/10/06 07:52:56;;;;;;;;;;;;;;;;;;5069662;28;20421;-73
2023/10/06 07:55:23;;;;;;;;;;;;;;;;;;5071816;28;19925;-73
2023/10/06 07:57:51;;;;;;;;;;;;;;;;;;5071663;28;19978;-74
2023/10/06 08:00:24;;;;;;;;;;;;;;;;;;5072544;28;19925;-74
2023/10/06 08:02:51;;;;;;;;;;;;;;;;;;5070557;28;20338;-72
2023/10/06 08:05:19;;;;;;;;;;;;;;;;;;5071154;28;20295;-74
2023/10/06 08:07:46;;;;;;;;;;;;;;;;;;5070975;28;19925;-74
2023/10/06 08:10:14;;;;;;;;;;;;;;;;;;5069115;28;19928;-73
2023/10/06 08:12:42;;;;;;;;;;;;;;;;;;5072243;28;20307;-73
2023/10/06 08:15:10;;;;;;;;;;;;;;;;;;5065973;28;19932;-73
2023/10/06 08:17:37;;;;;;;;;;;;;;;;;;5071423;28;20011;-77
2023/10/06 08:20:05;;;;;;;;;;;;;;;;;;5072574;28;19925;-78
2023/10/06 08:22:33;;;;;;;;;;;;;;;;;;5071578;28;19932;-77
2023/10/06 08:25:01;;;;;;;;;;;;;;;;;;5071516;28;19924;-77
2023/10/06 08:27:28;;;;;;;;;;;;;;;;;;5068944;28;20031;-77
2023/10/06 08:29:54;;;;;;;;;;;;;;;;;;5071224;28;19964;-76
2023/10/06 08:32:22;;;;;;;;;;;;;;;;;;5071397;28;19971;-74
2023/10/06 08:34:49;;;;;;;;;;;;;;;;;;5071519;28;20008;-73
2023/10/06 08:37:16;;;;;;;;;;;;;;;;;;5067326;28;20364;-73
2023/10/06 08:39:46;;;;;;;;;;;;;;;;;;5071538;28;19978;-73
2023/10/06 08:42:14;;;;;;;;;;;;;;;;;;5070200;28;19924;-73
2023/10/06 08:44:41;;;;;;;;;;;;;;;;;;5069211;28;19925;-74
2023/10/06 08:47:09;;;;;;;;;;;;;;;;;;5067070;28;19986;-74
2023/10/06 08:49:36;;;;;;;;;;;;;;;;;;5071286;28;20379;-74
2023/10/06 08:52:04;;;;;;;;;;;;;;;;;;5068724;28;19978;-74
2023/10/06 08:54:31;;;;;;;;;;;;;;;;;;5070100;28;20312;-73
2023/10/06 08:56:58;;;;;;;;;;;;;;;;;;5070621;28;19986;-74
2023/10/06 08:59:25;;;;;;;;;;;;;;;;;;5068557;28;19924;-73
2023/10/06 09:01:52;;;;;;;;;;;;;;;;;;5069359;28;19924;-74
2023/10/06 09:04:21;;;;;;;;;;;;;;;;;;5071492;28;19932;-75
2023/10/06 09:06:48;;;;;;;;;;;;;;;;;;5070323;28;19978;-74
2023/10/06 09:09:15;;;;;;;;;;;;;;;;;;5069825;28;19974;-73
2023/10/06 09:11:42;;;;;;;;;;;;;;;;;;5065809;28;20434;-73
2023/10/06 09:14:10;;;;;;;;;;;;;;;;;;5065929;28;19936;-73
2023/10/06 09:16:38;;;;;;;;;;;;;;;;;;5068457;28;20388;-75
2023/10/06 09:19:05;;;;;;;;;;;;;;;;;;5067699;28;20034;-73
2023/10/06 09:21:32;;;;;;;;;;;;;;;;;;5070583;28;19924;-73
2023/10/06 09:24:03;;;;;;;;;;;;;;;;;;5070058;28;19929;-73
2023/10/06 09:26:30;;;;;;;;;;;;;;;;;;5069942;28;19932;-73
2023/10/06 09:29:01;;;;;;;;;;;;;;;;;;5069200;28;19999;-73
2023/10/06 09:31:28;;;;;;;;;;;;;;;;;;5067518;28;19978;-74
2023/10/06 09:33:56;;;;;;;;;;;;;;;;;;5069371;28;19990;-74
2023/10/06 09:36:23;;;;;;;;;;;;;;;;;;5070731;28;20019;-75
2023/10/06 09:38:50;;;;;;;;;;;;;;;;;;5068662;28;20013;-73
2023/10/06 09:41:17;;;;;;;;;;;;;;;;;;5073283;28;20346;-73
2023/10/06 09:43:45;;;;;;;;;;;;;;;;;;5075683;28;19924;-73
2023/10/06 09:46:13;;;;;;;;;;;;;;;;;;5073974;28;19932;-74
2023/10/06 09:48:40;;;;;;;;;;;;;;;;;;5072478;28;19924;-74
2023/10/06 09:51:07;;;;;;;;;;;;;;;;;;5074219;28;19936;-74
2023/10/06 09:53:37;;;;;;;;;;;;;;;;;;5074150;28;19924;-75
2023/10/06 09:56:06;;;;;;;;;;;;;;;;;;5075600;28;19928;-73
2023/10/06 09:58:33;;;;;;;;;;;;;;;;;;5074962;28;19940;-74
2023/10/06 10:01:00;;;;;;;;;;;;;;;;;;5074082;28;19929;-74
2023/10/06 10:03:27;;;;;;;;;;;;;;;;;;5072415;28;20047;-73
2023/10/06 10:05:54;;;;;;;;;;;;;;;;;;5073933;28;19970;-72
2023/10/06 10:08:22;;;;;;;;;;;;;;;;;;5074083;28;19931;-74
2023/10/06 10:10:52;;;;;;;;;;;;;;;;;;5074394;28;19960;-73
2023/10/06 10:13:19;;;;;;;;;;;;;;;;;;5075002;28;20294;-74
2023/10/06 10:15:46;;;;;;;;;;;;;;;;;;5075323;28;19951;-74
2023/10/06 10:18:14;;;;;;;;;;;;;;;;;;5074544;28;20397;-74
2023/10/06 10:20:41;;;;;;;;;;;;;;;;;;5074369;28;19955;-74
2023/10/06 10:23:08;;;;;;;;;;;;;;;;;;5074665;28;19939;-74
2023/10/06 10:25:36;;;;;;;;;;;;;;;;;;5073908;28;19972;-74
2023/10/06 10:28:03;;;;;;;;;;;;;;;;;;5074642;28;19924;-75
2023/10/06 10:30:30;;;;;;;;;;;;;;;;;;5074315;28;20467;-74
2023/10/06 10:32:57;;;;;;;;;;;;;;;;;;5076526;28;19924;-74
2023/10/06 10:35:24;;;;;;;;;;;;;;;;;;5075276;28;19933;-74
2023/10/06 10:37:51;;;;;;;;;;;;;;;;;;5072671;28;20338;-74
2023/10/06 10:40:18;;;;;;;;;;;;;;;;;;5074679;28;19970;-75
2023/10/06 10:42:45;;;;;;;;;;;;;;;;;;5071458;28;19928;-74
2023/10/06 10:45:12;;;;;;;;;;;;;;;;;;5073544;28;20387;-75
2023/10/06 10:47:39;;;;;;;;;;;;;;;;;;5073428;28;20391;-74
2023/10/06 10:50:07;;;;;;;;;;;;;;;;;;5073871;28;19928;-74
2023/10/06 10:52:34;;;;;;;;;;;;;;;;;;5073229;28;20469;-74
2023/10/06 10:55:01;;;;;;;;;;;;;;;;;;5071244;28;19940;-74
2023/10/06 10:57:28;;;;;;;;;;;;;;;;;;5072200;28;19932;-74
2023/10/06 10:59:56;;;;;;;;;;;;;;;;;;5074095;28;20020;-74
2023/10/06 11:02:24;;;;;;;;;;;;;;;;;;5072574;28;19928;-74
2023/10/06 11:04:51;;;;;;;;;;;;;;;;;;5070283;28;20387;-74
2023/10/06 11:07:18;;;;;;;;;;;;;;;;;;5072261;28;19963;-74
2023/10/06 11:09:48;;;;;;;;;;;;;;;;;;5073257;28;19930;-74
2023/10/06 11:12:15;;;;;;;;;;;;;;;;;;5074155;28;19925;-74
2023/10/06 11:14:42;;;;;;;;;;;;;;;;;;5072071;28;19924;-74
2023/10/06 11:17:11;;;;;;;;;;;;;;;;;;5071909;28;19974;-75
2023/10/06 11:19:38;;;;;;;;;;;;;;;;;;5072828;28;20370;-73
2023/10/06 11:22:05;;;;;;;;;;;;;;;;;;5073285;28;19925;-74
2023/10/06 11:24:32;;;;;;;;;;;;;;;;;;5073542;28;20448;-74
2023/10/06 11:27:01;;;;;;;;;;;;;;;;;;5073756;28;20450;-75
2023/10/06 11:29:28;;;;;;;;;;;;;;;;;;5072341;28;19958;-75
2023/10/06 11:31:55;;;;;;;;;;;;;;;;;;5071239;28;19958;-75
2023/10/06 11:34:24;;;;;;;;;;;;;;;;;;5071678;28;19928;-76
2023/10/06 11:36:51;;;;;;;;;;;;;;;;;;5072076;28;20395;-75
2023/10/06 11:39:18;;;;;;;;;;;;;;;;;;5071587;28;19931;-75
2023/10/06 11:41:45;;;;;;;;;;;;;;;;;;5069690;28;19925;-75
2023/10/06 11:44:12;;;;;;;;;;;;;;;;;;5071049;28;19924;-75
2023/10/06 11:46:39;;;;;;;;;;;;;;;;;;5072691;28;19998;-74
2023/10/06 11:49:06;;;;;;;;;;;;;;;;;;5070701;28;19951;-75
2023/10/06 11:51:35;;;;;;;;;;;;;;;;;;5070785;28;20350;-76
2023/10/06 11:54:03;;;;;;;;;;;;;;;;;;5068950;28;20391;-75
2023/10/06 11:56:30;;;;;;;;;;;;;;;;;;5066434;28;20011;-75
2023/10/06 11:58:57;;;;;;;;;;;;;;;;;;5067260;28;20003;-75
2023/10/06 12:01:25;;;;;;;;;;;;;;;;;;5071731;28;19932;-74
2023/10/06 12:03:59;;;;;;;;;;;;;;;;;;5072018;28;19925;-75
2023/10/06 12:06:27;;;;;;;;;;;;;;;;;;5072492;28;19936;-75
2023/10/06 12:08:54;;;;;;;;;;;;;;;;;;5070671;28;19967;-75
2023/10/06 12:11:21;;;;;;;;;;;;;;;;;;5071914;28;19929;-75
2023/10/06 12:13:48;;;;;;;;;;;;;;;;;;5070701;28;19924;-75
2023/10/06 12:16:15;;;;;;;;;;;;;;;;;;5072340;28;19925;-74
2023/10/06 12:18:44;;;;;;;;;;;;;;;;;;5071117;28;20391;-75
2023/10/06 12:21:13;;;;;;;;;;;;;;;;;;5071635;28;20319;-74
2023/10/06 12:23:40;;;;;;;;;;;;;;;;;;5068538;28;19955;-75
2023/10/06 12:26:07;;;;;;;;;;;;;;;;;;5069405;28;19970;-75
2023/10/06 12:28:34;;;;;;;;;;;;;;;;;;5071780;28;20272;-75
2023/10/06 12:31:02;;;;;;;;;;;;;;;;;;5070717;28;19924;-74
2023/10/06 12:33:29;;;;;;;;;;;;;;;;;;5067800;28;19971;-74
2023/10/06 12:35:56;;;;;;;;;;;;;;;;;;5070888;28;20307;-74
2023/10/06 12:38:26;;;;;;;;;;;;;;;;;;5069720;28;19931;-74
2023/10/06 12:40:53;;;;;;;;;;;;;;;;;;5072231;28;19925;-75
2023/10/06 12:43:20;;;;;;;;;;;;;;;;;;5068941;28;19977;-75
2023/10/06 12:45:47;;;;;;;;;;;;;;;;;;5069899;28;19986;-75
2023/10/06 12:48:14;;;;;;;;;;;;;;;;;;5070907;28;19977;-75
2023/10/06 12:50:43;;;;;;;;;;;;;;;;;;5069926;28;20222;-74
2023/10/06 12:53:11;;;;;;;;;;;;;;;;;;5070219;28;19948;-77
2023/10/06 12:55:41;;;;;;;;;;;;;;;;;;5069137;28;20399;-77
2023/10/06 12:58:11;;;;;;;;;;;;;;;;;;5069528;28;20015;-77
2023/10/06 13:00:38;;;;;;;;;;;;;;;;;;5069502;28;20008;-77
2023/10/06 13:03:11;;;;;;;;;;;;;;;;;;5070141;28;20429;-78
2023/10/06 13:05:38;;;;;;;;;;;;;;;;;;5070519;28;19924;-78
2023/10/06 13:08:05;;;;;;;;;;;;;;;;;;5071394;28;19925;-78
2023/10/06 13:10:34;;;;;;;;;;;;;;;;;;5071474;28;20019;-78
2023/10/06 13:13:06;;;;;;;;;;;;;;;;;;5071052;28;19971;-77
2023/10/06 13:15:33;;;;;;;;;;;;;;;;;;5070889;28;20260;-77
2023/10/06 13:18:01;;;;;;;;;;;;;;;;;;5070387;28;19928;-76
2023/10/06 13:20:28;;;;;;;;;;;;;;;;;;5070074;28;19936;-77
2023/10/06 13:22:55;;;;;;;;;;;;;;;;;;5071055;28;19924;-77
2023/10/06 13:25:22;;;;;;;;;;;;;;;;;;5070552;28;19932;-77
2023/10/06 13:27:49;;;;;;;;;;;;;;;;;;5069390;28;19997;-74
2023/10/06 13:30:18;;;;;;;;;;;;;;;;;;5070468;28;19932;-74
2023/10/06 13:32:47;;;;;;;;;;;;;;;;;;5069964;28;20375;-75
2023/10/06 13:35:16;;;;;;;;;;;;;;;;;;5066861;28;20328;-75
2023/10/06 13:37:43;;;;;;;;;;;;;;;;;;5064149;28;19931;-75
2023/10/06 13:40:11;;;;;;;;;;;;;;;;;;5070184;28;20350;-71
2023/10/06 13:42:41;;;;;;;;;;;;;;;;;;5070460;28;19928;-74
2023/10/06 13:45:14;;;;;;;;;;;;;;;;;;5066605;28;19989;-74
2023/10/06 13:47:42;;;;;;;;;;;;;;;;;;5063511;28;20391;-73
2023/10/06 13:50:10;;;;;;;;;;;;;;;;;;5069707;28;19929;-75
2023/10/06 13:52:37;;;;;;;;;;;;;;;;;;5069156;28;19931;-74
2023/10/06 13:55:04;;;;;;;;;;;;;;;;;;5070739;28;20379;-74
2023/10/06 13:57:31;;;;;;;;;;;;;;;;;;5069045;28;19929;-75
2023/10/06 13:59:58;;;;;;;;;;;;;;;;;;5070642;28;19924;-74
2023/10/06 14:02:25;;;;;;;;;;;;;;;;;;5069633;28;19924;-75
2023/10/06 14:04:52;;;;;;;;;;;;;;;;;;5069826;28;19924;-74
2023/10/06 14:07:20;;;;;;;;;;;;;;;;;;5070020;28;20425;-75
2023/10/06 14:09:48;;;;;;;;;;;;;;;;;;5070473;28;19959;-74
2023/10/06 14:12:15;;;;;;;;;;;;;;;;;;5070936;28;19982;-75
2023/10/06 14:15:03;;;;;;;;;;;;;;;;;;5070243;28;20332;-76
2023/10/06 14:17:34;;;;;;;;;;;;;;;;;;5068789;28;19933;-76
2023/10/06 14:20:10;;;;;;;;;;;;;;;;;;5068971;28;20384;-76
2023/10/06 14:22:37;;;;;;;;;;;;;;;;;;5069989;28;20061;-76
2023/10/06 14:25:04;;;;;;;;;;;;;;;;;;5071553;28;19947;-75
2023/10/06 14:27:31;;;;;;;;;;;;;;;;;;5070526;28;19936;-75
2023/10/06 14:30:00;;;;;;;;;;;;;;;;;;5071230;28;19924;-76
2023/10/06 14:32:42;;;;;;;;;;;;;;;;;;5071192;28;19931;-76
2023/10/06 14:35:31;;;;;;;;;;;;;;;;;;5066760;28;19959;-76
2023/10/06 14:45:57;;;;;;;;;;;;;;;;;;5073263;28;20020;-75
2023/10/06 14:46:37;;;;;;;;;;;;;;;;;;5071209;28;19950;-75
2023/10/06 14:49:05;;;;;;;;;;;;;;;;;;5073205;28;20013;-75
2023/10/06 14:51:33;;;;;;;;;;;;;;;;;;5067828;28;20398;-74
2023/10/06 14:54:00;;;;;;;;;;;;;;;;;;5071798;28;19931;-75
2023/10/06 14:56:27;;;;;;;;;;;;;;;;;;5073608;28;19932;-75
2023/10/06 14:58:54;;;;;;;;;;;;;;;;;;5071386;28;20421;-75
2023/10/06 15:01:21;;;;;;;;;;;;;;;;;;5071492;28;19925;-75
2023/10/06 15:03:48;;;;;;;;;;;;;;;;;;5073292;28;19925;-74
2023/10/06 15:06:16;;;;;;;;;;;;;;;;;;5065529;28;19924;-75
2023/10/06 15:08:48;;;;;;;;;;;;;;;;;;5067815;28;19931;-73
2023/10/06 15:11:16;;;;;;;;;;;;;;;;;;5070778;28;19924;-74
2023/10/06 15:13:46;;;;;;;;;;;;;;;;;;5070642;28;19931;-75
2023/10/06 15:16:14;;;;;;;;;;;;;;;;;;5072980;28;20006;-75
2023/10/06 15:18:42;;;;;;;;;;;;;;;;;;5065454;28;19947;-75
2023/10/06 15:21:11;;;;;;;;;;;;;;;;;;5067182;28;19931;-75
2023/10/06 15:23:38;;;;;;;;;;;;;;;;;;5073243;28;19958;-75
2023/10/06 15:26:06;;;;;;;;;;;;;;;;;;5073704;28;19985;-75
2023/10/06 15:28:33;;;;;;;;;;;;;;;;;;5066005;28;19928;-76
2023/10/06 15:31:00;;;;;;;;;;;;;;;;;;5064103;28;19931;-76
2023/10/06 15:33:27;;;;;;;;;;;;;;;;;;5068857;28;20380;-75
2023/10/06 15:35:56;;;;;;;;;;;;;;;;;;5071299;28;19928;-75
2023/10/06 15:38:23;;;;;;;;;;;;;;;;;;5069550;28;20015;-75
2023/10/06 15:40:50;;;;;;;;;;;;;;;;;;5070601;28;19947;-75
2023/10/06 15:43:17;;;;;;;;;;;;;;;;;;5069248;28;19932;-75
2023/10/06 15:45:44;;;;;;;;;;;;;;;;;;5064265;28;20304;-76
2023/10/06 15:48:13;;;;;;;;;;;;;;;;;;5067702;28;19929;-73
2023/10/06 15:50:41;;;;;;;;;;;;;;;;;;5071912;28;19928;-74
2023/10/06 15:53:09;;;;;;;;;;;;;;;;;;5071946;28;19928;-74
2023/10/06 15:55:38;;;;;;;;;;;;;;;;;;5070228;28;19930;-74
2023/10/06 15:58:06;;;;;;;;;;;;;;;;;;5072231;28;19932;-74
2023/10/06 16:00:37;;;;;;;;;;;;;;;;;;5070889;28;19932;-74
2023/10/06 16:03:05;;;;;;;;;;;;;;;;;;5067554;28;19924;-76
2023/10/06 16:05:32;;;;;;;;;;;;;;;;;;5070274;28;19971;-75
2023/10/06 16:08:01;;;;;;;;;;;;;;;;;;5069005;28;20578;-75
2023/10/06 16:10:28;;;;;;;;;;;;;;;;;;5067289;28;19932;-75
2023/10/06 16:12:55;;;;;;;;;;;;;;;;;;5071175;28;19925;-73
2023/10/06 16:15:22;;;;;;;;;;;;;;;;;;5070052;28;20664;-75
2023/10/06 16:17:50;;;;;;;;;;;;;;;;;;5071652;28;19991;-75
2023/10/06 16:20:19;;;;;;;;;;;;;;;;;;5071374;28;19998;-74
2023/10/06 16:22:46;;;;;;;;;;;;;;;;;;5072558;28;19925;-76
2023/10/06 16:25:13;;;;;;;;;;;;;;;;;;5070592;28;19928;-74
2023/10/06 16:27:40;;;;;;;;;;;;;;;;;;5072785;28;20011;-75
2023/10/06 16:30:07;;;;;;;;;;;;;;;;;;5071166;28;20410;-76
2023/10/06 16:32:34;;;;;;;;;;;;;;;;;;5068762;28;19994;-76
2023/10/06 16:35:02;;;;;;;;;;;;;;;;;;5071761;28;19925;-76
2023/10/06 16:37:30;;;;;;;;;;;;;;;;;;5071066;28;19964;-76
2023/10/06 16:39:57;;;;;;;;;;;;;;;;;;5067978;28;20025;-75
2023/10/06 16:42:25;;;;;;;;;;;;;;;;;;5067425;28;19924;-75
2023/10/06 16:44:53;;;;;;;;;;;;;;;;;;5072295;28;20035;-74
2023/10/06 16:47:20;;;;;;;;;;;;;;;;;;5068879;28;19985;-74
2023/10/06 16:49:47;;;;;;;;;;;;;;;;;;5068394;28;19924;-75
2023/10/06 16:52:14;;;;;;;;;;;;;;;;;;5072124;28;20469;-75
2023/10/06 16:54:41;;;;;;;;;;;;;;;;;;5069162;28;19928;-73
2023/10/06 16:57:08;;;;;;;;;;;;;;;;;;5071313;28;19924;-74
2023/10/06 16:59:36;;;;;;;;;;;;;;;;;;5069049;28;19930;-75
2023/10/06 17:02:03;;;;;;;;;;;;;;;;;;5063524;28;20315;-76
2023/10/06 17:04:31;;;;;;;;;;;;;;;;;;5069061;28;19978;-76